createdAt,value
2023-03-30T06:45:37.253Z,16.33
2023-03-30T06:48:39.847Z,16.05
2023-03-30T06:51:42.356Z,15.52
2023-03-30T06:54:44.840Z,15.93
2023-03-30T06:57:47.522Z,15.40
2023-03-30T07:00:51.652Z,13.82
2023-03-30T07:03:54.322Z,13.80
2023-03-30T07:06:57.839Z,13.85
2023-03-30T07:10:00.579Z,13.27
2023-03-30T07:13:03.122Z,12.40
2023-03-30T07:16:07.975Z,11.88
2023-03-30T07:19:10.496Z,11.00
2023-03-30T07:22:13.007Z,8.98
2023-03-30T07:25:15.605Z,9.48
2023-03-30T07:28:18.493Z,9.82
2023-03-30T07:31:22.342Z,9.30
2023-03-30T07:37:39.123Z,8.90
2023-03-30T07:40:42.097Z,9.55
2023-03-30T07:43:45.176Z,8.50
2023-03-30T07:46:47.820Z,8.10
2023-03-30T07:49:51.098Z,8.68
2023-03-30T07:52:55.122Z,8.38
2023-03-30T07:55:57.723Z,8.57
2023-03-30T07:59:01.778Z,8.80
2023-03-30T08:02:05.621Z,8.13
2023-03-30T08:05:09.505Z,8.25
2023-03-30T08:08:13.832Z,7.50
2023-03-30T08:11:16.510Z,8.55
2023-03-30T08:14:19.090Z,7.93
2023-03-30T08:17:21.573Z,7.65
2023-03-30T08:20:24.215Z,7.55
2023-03-30T08:23:28.256Z,7.05
2023-03-30T08:26:30.894Z,7.70
2023-03-30T08:29:33.773Z,7.40
2023-03-30T08:32:36.338Z,7.80
2023-03-30T08:35:39.398Z,7.32
2023-03-30T08:38:46.107Z,6.60
2023-03-30T08:42:08.216Z,6.32
2023-03-30T08:45:12.780Z,6.45
2023-03-30T08:48:19.782Z,5.97
2023-03-30T08:51:24.855Z,6.15
2023-03-30T08:54:30.652Z,5.75
2023-03-30T08:57:48.393Z,5.70
2023-03-30T09:00:56.702Z,6.72
2023-03-30T09:04:08.741Z,5.00
2023-03-30T09:07:18.127Z,5.80
2023-03-30T09:10:23.951Z,5.10
2023-03-30T09:13:30.989Z,4.78
2023-03-30T09:16:38.614Z,4.70
2023-03-30T09:19:50.161Z,4.45
2023-03-30T09:22:54.480Z,4.72
2023-03-30T09:26:07.419Z,4.25
2023-03-30T09:29:15.264Z,4.40
2023-03-30T09:32:25.031Z,4.57
2023-03-30T09:35:36.330Z,4.22
2023-03-30T09:38:42.033Z,4.15
2023-03-30T09:42:09.085Z,3.92
2023-03-30T09:45:18.069Z,4.35
2023-03-30T09:48:21.291Z,4.05
2023-03-30T09:51:25.606Z,3.75
2023-03-30T09:54:35.719Z,3.78
2023-03-30T09:57:39.555Z,3.17
2023-03-30T10:00:42.089Z,3.45
2023-03-30T10:03:46.204Z,3.53
2023-03-30T10:06:50.794Z,3.75
2023-03-30T10:09:53.671Z,3.80
2023-03-30T10:13:04.623Z,4.00
2023-03-30T10:16:09.530Z,3.60
2023-03-30T10:19:19.205Z,3.88
2023-03-30T10:22:23.351Z,3.35
2023-03-30T10:25:29.672Z,2.92
2023-03-30T10:28:35.918Z,3.47
2023-03-30T10:31:40.602Z,3.33
2023-03-30T10:34:45.527Z,2.90
2023-03-30T10:37:49.068Z,3.08
2023-03-30T10:40:58.805Z,2.78
2023-03-30T10:44:16.401Z,3.10
2023-03-30T10:47:33.552Z,3.10
2023-03-30T10:50:46.246Z,2.63
2023-03-30T10:53:56.886Z,2.90
2023-03-30T10:57:07.897Z,3.40
2023-03-30T11:00:43.364Z,3.05
2023-03-30T11:03:51.171Z,2.70
2023-03-30T11:06:57.477Z,2.80
2023-03-30T11:10:07.059Z,2.67
2023-03-30T11:13:16.757Z,2.60
2023-03-30T11:16:24.432Z,2.53
2023-03-30T11:19:33.562Z,2.78
2023-03-30T11:22:39.367Z,2.42
2023-03-30T11:25:53.913Z,2.70
2023-03-30T11:29:03.974Z,1.88
2023-03-30T11:32:18.003Z,2.47
2023-03-30T11:35:31.228Z,2.38
2023-03-30T11:38:42.516Z,2.03
2023-03-30T11:41:49.498Z,2.20
2023-03-30T11:44:52.604Z,2.30
2023-03-30T11:48:10.165Z,1.80
2023-03-30T11:51:29.828Z,1.63
2023-03-30T11:55:03.630Z,1.70
2023-03-30T11:58:18.370Z,2.03
2023-03-30T12:01:31.789Z,2.00
2023-03-30T12:04:45.929Z,2.10
2023-03-30T12:07:58.707Z,2.50
2023-03-30T12:11:06.800Z,1.80
2023-03-30T12:14:28.409Z,2.08
2023-03-30T12:17:45.356Z,1.85
2023-03-30T12:20:54.296Z,1.95
2023-03-30T12:24:05.016Z,1.40
2023-03-30T12:27:11.789Z,1.70
2023-03-30T12:30:24.564Z,1.75
2023-03-30T12:33:29.182Z,2.10
2023-03-30T12:36:38.145Z,2.42
2023-03-30T12:39:48.845Z,2.35
2023-03-30T12:43:01.685Z,2.10
2023-03-30T12:46:14.117Z,2.08
2023-03-30T12:49:27.056Z,1.80
2023-03-30T12:52:43.109Z,2.00
2023-03-30T12:55:47.990Z,2.20
2023-03-30T12:59:10.171Z,2.22
2023-03-30T13:02:39.798Z,2.00
2023-03-30T13:05:44.980Z,2.00
2023-03-30T13:08:54.226Z,1.80
2023-03-30T13:12:28.768Z,2.50
2023-03-30T13:15:35.814Z,2.30
2023-03-30T13:18:54.025Z,1.90
2023-03-30T13:21:58.621Z,2.22
2023-03-30T13:25:24.059Z,2.10
2023-03-30T13:28:48.746Z,2.60
2023-03-30T13:32:16.801Z,2.70
2023-03-30T13:35:46.189Z,2.35
2023-03-30T13:39:09.738Z,2.05
2023-03-30T13:42:27.056Z,1.55
2023-03-30T13:45:40.204Z,1.65
2023-03-30T13:48:56.619Z,1.85
2023-03-30T13:52:04.226Z,1.80
2023-03-30T13:55:16.067Z,1.40
2023-03-30T14:01:25.664Z,1.73
2023-03-30T14:04:30.917Z,2.15
2023-03-30T14:07:43.374Z,2.88
2023-03-30T14:10:48.244Z,3.00
2023-03-30T14:13:53.899Z,2.40
2023-03-30T14:16:57.421Z,2.60
2023-03-30T14:20:13.942Z,2.65
2023-03-30T14:23:20.391Z,2.40
2023-03-30T14:26:26.316Z,2.58
2023-03-30T14:29:32.022Z,2.63
2023-03-30T14:32:34.544Z,2.20
2023-03-30T14:35:41.919Z,2.50
2023-03-30T14:38:47.878Z,3.35
2023-03-30T14:41:51.167Z,3.60
2023-03-30T14:44:57.707Z,2.35
2023-03-30T14:48:00.385Z,3.28
2023-03-30T14:51:03.582Z,2.72
2023-03-30T14:54:07.566Z,2.60
2023-03-30T14:57:12.141Z,3.17
2023-03-30T15:00:20.402Z,2.70
2023-03-30T15:03:33.337Z,2.92
2023-03-30T15:06:37.742Z,2.65
2023-03-30T15:09:40.166Z,2.63
2023-03-30T15:12:45.485Z,2.80
2023-03-30T15:15:51.244Z,2.70
2023-03-30T15:18:58.377Z,2.85
2023-03-30T15:22:03.520Z,2.28
2023-03-30T15:25:09.020Z,2.83
2023-03-30T15:28:18.979Z,2.97
2023-03-30T15:31:23.364Z,3.10
2023-03-30T15:34:25.897Z,3.20
2023-03-30T15:37:30.101Z,3.33
2023-03-30T15:40:35.890Z,3.90
2023-03-30T15:43:52.679Z,3.28
2023-03-30T15:46:58.652Z,3.53
2023-03-30T15:50:01.436Z,3.65
2023-03-30T15:53:05.969Z,3.78
2023-03-30T15:56:13.919Z,4.28
2023-03-30T15:59:19.993Z,3.50
2023-03-30T16:02:25.542Z,3.53
2023-03-30T16:05:30.501Z,4.13
2023-03-30T16:08:33.091Z,3.55
2023-03-30T16:11:36.249Z,3.58
2023-03-30T16:14:38.817Z,3.63
2023-03-30T16:17:42.642Z,3.83
2023-03-30T16:20:45.092Z,3.40
2023-03-30T16:23:47.494Z,4.00
2023-03-30T16:26:49.956Z,4.00
2023-03-30T16:29:52.378Z,3.75
2023-03-30T16:32:56.158Z,3.78
2023-03-30T16:35:58.653Z,4.05
2023-03-30T16:44:15.386Z,4.32
2023-03-30T16:47:20.268Z,3.55
2023-03-30T16:50:24.957Z,3.90
2023-03-30T16:53:27.369Z,4.55
2023-03-30T16:56:30.107Z,4.20
2023-03-30T16:59:34.145Z,4.22
2023-03-30T17:02:36.595Z,3.70
2023-03-30T17:05:39.758Z,3.92
2023-03-30T17:08:43.028Z,3.88
